createdAt,value
2023-03-27T00:01:12.153Z,5.05
2023-03-27T00:03:40.325Z,6.20
2023-03-27T00:06:11.452Z,12.38
2023-03-27T00:08:38.720Z,10.23
2023-03-27T00:11:08.064Z,5.75
2023-03-27T00:13:35.173Z,5.75
2023-03-27T00:16:02.979Z,5.32
2023-03-27T00:18:32.458Z,5.60
2023-03-27T00:21:00.973Z,6.10
2023-03-27T00:23:29.732Z,5.45
2023-03-27T00:25:57.896Z,5.53
2023-03-27T00:28:27.363Z,5.65
2023-03-27T00:30:55.947Z,5.85
2023-03-27T00:33:24.443Z,5.25
2023-03-27T00:35:51.823Z,5.05
2023-03-27T00:38:19.343Z,5.13
2023-03-27T00:40:48.062Z,5.68
2023-03-27T00:43:26.611Z,5.50
2023-03-27T00:46:21.302Z,6.43
2023-03-27T00:48:52.432Z,5.53
2023-03-27T00:51:22.265Z,6.10
2023-03-27T00:53:51.611Z,6.10
2023-03-27T00:56:18.651Z,6.90
2023-03-27T00:58:59.529Z,6.47
2023-03-27T01:01:28.944Z,5.45
2023-03-27T01:03:59.638Z,6.50
2023-03-27T01:06:27.534Z,6.10
2023-03-27T01:08:54.307Z,5.88
2023-03-27T01:11:39.510Z,6.38
2023-03-27T01:14:21.900Z,7.40
2023-03-27T01:17:17.862Z,7.53
2023-03-27T01:20:07.319Z,8.02
2023-03-27T01:22:49.207Z,9.57
2023-03-27T01:25:51.240Z,8.77
2023-03-27T01:28:47.506Z,9.40
2023-03-27T01:32:06.540Z,8.50
2023-03-27T01:34:48.421Z,7.70
2023-03-27T01:38:06.365Z,5.85
2023-03-27T01:40:36.690Z,5.57
2023-03-27T01:43:15.393Z,6.13
2023-03-27T01:45:52.604Z,6.72
2023-03-27T01:48:22.426Z,7.07
2023-03-27T01:50:54.474Z,6.20
2023-03-27T01:53:28.682Z,5.85
2023-03-27T01:56:04.540Z,10.90
2023-03-27T01:58:48.118Z,8.40
2023-03-27T02:01:24.015Z,7.57
2023-03-27T02:03:57.246Z,8.73
2023-03-27T02:06:31.552Z,8.93
2023-03-27T02:09:23.950Z,8.65
2023-03-27T02:11:55.284Z,10.18
2023-03-27T02:14:28.715Z,9.98
2023-03-27T02:17:01.197Z,10.98
2023-03-27T02:19:47.581Z,10.57
2023-03-27T02:22:15.337Z,21.83
2023-03-27T02:24:43.675Z,9.90
2023-03-27T02:27:28.138Z,9.95
2023-03-27T02:30:14.014Z,10.20
2023-03-27T02:32:46.948Z,12.63
2023-03-27T02:35:45.307Z,10.43
2023-03-27T02:38:20.725Z,12.45
2023-03-27T02:41:09.237Z,9.98
2023-03-27T02:43:59.311Z,10.65
2023-03-27T02:46:32.057Z,9.60
2023-03-27T02:49:03.657Z,13.15
2023-03-27T02:51:54.852Z,13.73
2023-03-27T02:54:51.107Z,31.95
2023-03-27T02:57:25.176Z,20.73
2023-03-27T02:59:57.515Z,16.63
2023-03-27T03:02:30.113Z,29.38
2023-03-27T03:05:04.068Z,12.32
2023-03-27T03:07:30.915Z,13.90
2023-03-27T03:09:58.335Z,12.82
2023-03-27T03:12:25.074Z,14.60
2023-03-27T03:14:52.155Z,16.13
2023-03-27T03:17:19.079Z,11.10
2023-03-27T03:19:45.771Z,15.85
2023-03-27T03:22:13.477Z,14.20
2023-03-27T03:24:42.337Z,14.75
2023-03-27T03:27:09.543Z,16.83
2023-03-27T03:29:37.246Z,18.30
2023-03-27T03:32:05.836Z,16.88
2023-03-27T03:34:35.759Z,19.98
2023-03-27T03:37:02.523Z,41.20
2023-03-27T03:39:29.315Z,36.70
2023-03-27T03:41:56.118Z,31.38
2023-03-27T03:44:23.025Z,31.50
2023-03-27T03:46:49.769Z,17.73
2023-03-27T03:49:16.492Z,22.43
2023-03-27T03:51:43.295Z,22.90
2023-03-27T03:54:10.026Z,25.83
2023-03-27T03:56:38.240Z,29.38
2023-03-27T03:59:05.008Z,28.98
2023-03-27T04:01:31.767Z,37.13
2023-03-27T04:03:58.548Z,36.53
2023-03-27T04:06:25.828Z,30.97
2023-03-27T04:08:53.603Z,35.80
2023-03-27T04:11:20.837Z,44.27
2023-03-27T04:13:47.607Z,31.93
2023-03-27T04:16:15.024Z,32.03
2023-03-27T04:18:42.500Z,32.23
2023-03-27T04:21:16.190Z,31.20
2023-03-27T04:23:45.238Z,31.77
2023-03-27T04:26:12.619Z,29.47
2023-03-27T04:28:39.840Z,35.57
2023-03-27T04:31:08.469Z,35.47
2023-03-27T04:33:39.525Z,32.00
2023-03-27T04:36:08.990Z,36.10
2023-03-27T04:38:39.971Z,45.13
2023-03-27T04:41:08.241Z,52.13
2023-03-27T04:43:40.317Z,49.60
2023-03-27T04:46:07.987Z,51.97
2023-03-27T04:48:39.126Z,50.45
2023-03-27T04:51:07.060Z,54.75
2023-03-27T04:53:36.443Z,85.45
2023-03-27T04:56:03.908Z,71.25
2023-03-27T04:58:30.659Z,63.87
2023-03-27T05:00:58.012Z,55.38
2023-03-27T05:03:26.151Z,50.45
2023-03-27T05:05:53.162Z,49.53
2023-03-27T05:08:19.905Z,44.90
2023-03-27T05:10:46.823Z,45.28
2023-03-27T05:13:13.633Z,40.90
2023-03-27T05:15:41.656Z,46.47
2023-03-27T05:18:09.249Z,53.10
2023-03-27T05:20:36.809Z,51.25
2023-03-27T05:23:04.152Z,48.85
2023-03-27T05:25:32.792Z,49.47
2023-03-27T05:28:00.705Z,53.92
2023-03-27T05:30:28.966Z,52.97
2023-03-27T05:32:59.474Z,48.25
2023-03-27T05:35:28.629Z,51.70
2023-03-27T05:37:56.312Z,50.78
2023-03-27T05:40:25.758Z,44.65
2023-03-27T05:42:53.771Z,37.33
2023-03-27T05:45:21.555Z,39.92
2023-03-27T05:47:49.546Z,44.15
2023-03-27T05:50:18.197Z,43.88
2023-03-27T05:52:45.388Z,46.33
2023-03-27T05:55:14.062Z,44.60
2023-03-27T05:57:41.760Z,47.38
2023-03-27T06:00:14.386Z,31.55
2023-03-27T06:02:43.398Z,30.27
2023-03-27T06:05:15.260Z,30.45
2023-03-27T06:07:43.604Z,31.23
2023-03-27T06:10:14.292Z,34.47
2023-03-27T06:12:42.793Z,32.53
2023-03-27T06:15:10.853Z,27.88
2023-03-27T06:17:42.336Z,12.23
2023-03-27T06:20:15.445Z,6.60
2023-03-27T06:22:47.579Z,5.10
2023-03-27T06:25:15.481Z,12.75
2023-03-27T06:27:46.960Z,6.80
2023-03-27T06:30:17.461Z,6.55
2023-03-27T06:32:45.970Z,7.63
2023-03-27T06:35:14.764Z,4.78
2023-03-27T06:37:42.963Z,5.22
2023-03-27T06:40:10.549Z,5.22
2023-03-27T06:42:38.226Z,3.78
2023-03-27T06:45:05.924Z,3.78
2023-03-27T06:47:36.332Z,3.85
2023-03-27T06:50:07.588Z,5.30
2023-03-27T06:52:34.287Z,3.97
2023-03-27T06:55:01.088Z,4.13
2023-03-27T06:57:27.917Z,3.63
2023-03-27T06:59:54.477Z,3.03
2023-03-27T07:02:21.232Z,3.60
2023-03-27T07:04:57.726Z,3.78
2023-03-27T07:07:30.907Z,4.20
2023-03-27T07:09:57.634Z,3.50
2023-03-27T07:12:24.489Z,3.65
2023-03-27T07:14:51.616Z,3.25
2023-03-27T07:17:18.838Z,3.85
2023-03-27T07:19:46.280Z,3.63
2023-03-27T07:22:12.945Z,3.75
2023-03-27T07:24:40.858Z,3.58
2023-03-27T07:27:07.964Z,3.88
2023-03-27T07:29:36.170Z,4.63
2023-03-27T07:32:07.185Z,3.60
2023-03-27T07:34:36.178Z,3.60
2023-03-27T07:37:02.870Z,3.33
2023-03-27T07:39:29.569Z,3.55
2023-03-27T07:41:56.221Z,3.20
2023-03-27T07:44:22.908Z,3.15
2023-03-27T07:46:52.220Z,3.70
2023-03-27T07:49:19.241Z,2.78
2023-03-27T07:52:06.699Z,3.40
2023-03-27T07:54:33.438Z,2.55
2023-03-27T07:57:00.259Z,3.25
2023-03-27T07:59:28.596Z,3.47
2023-03-27T08:01:55.607Z,3.17
2023-03-27T08:04:22.732Z,2.90
2023-03-27T08:06:51.716Z,3.55
2023-03-27T08:09:18.458Z,3.50
2023-03-27T08:11:45.115Z,2.83
2023-03-27T08:14:11.808Z,3.85
2023-03-27T08:16:39.135Z,3.60
2023-03-27T08:19:06.765Z,3.15
2023-03-27T08:21:34.313Z,3.63
2023-03-27T08:24:03.414Z,3.63
2023-03-27T08:26:31.765Z,3.10
2023-03-27T08:28:59.103Z,3.47
2023-03-27T08:31:27.914Z,3.10
2023-03-27T08:33:54.944Z,7.78
2023-03-27T08:36:22.025Z,3.22
2023-03-27T08:38:49.140Z,3.78
2023-03-27T08:41:27.288Z,3.17
2023-03-27T08:43:57.281Z,3.58
2023-03-27T08:46:29.087Z,3.40
2023-03-27T08:48:58.651Z,2.90
2023-03-27T08:51:27.726Z,2.88
2023-03-27T08:54:00.826Z,3.55
2023-03-27T08:56:27.877Z,2.78
2023-03-27T08:58:54.914Z,3.33
2023-03-27T09:01:41.357Z,6.32
2023-03-27T09:04:17.524Z,3.90
2023-03-27T09:06:50.476Z,3.53
2023-03-27T09:09:46.758Z,4.05
2023-03-27T09:12:38.622Z,3.97
2023-03-27T09:15:12.161Z,3.10
2023-03-27T09:17:41.656Z,3.70
2023-03-27T09:20:19.191Z,2.80
2023-03-27T09:22:52.997Z,3.20
2023-03-27T09:25:26.420Z,3.58
2023-03-27T09:27:54.590Z,3.50
2023-03-27T09:30:29.303Z,3.63
2023-03-27T09:33:03.683Z,3.22
2023-03-27T09:35:30.475Z,2.90
2023-03-27T09:38:04.013Z,2.95
2023-03-27T09:40:52.971Z,3.90
2023-03-27T09:43:28.222Z,2.63
2023-03-27T09:45:55.595Z,3.03
2023-03-27T09:48:33.516Z,3.17
2023-03-27T09:51:00.388Z,3.47
2023-03-27T09:53:28.081Z,3.83
2023-03-27T09:56:13.200Z,3.65
2023-03-27T09:58:44.138Z,4.03
2023-03-27T10:01:20.508Z,3.67
2023-03-27T10:03:53.817Z,3.63
2023-03-27T10:06:52.570Z,3.92
2023-03-27T10:09:26.494Z,3.95
2023-03-27T10:12:05.602Z,3.78
2023-03-27T10:14:36.234Z,4.70
2023-03-27T10:17:05.127Z,4.07
2023-03-27T10:19:39.724Z,4.28
2023-03-27T10:22:15.048Z,4.88
2023-03-27T10:24:45.727Z,4.43
2023-03-27T10:27:18.980Z,4.57
2023-03-27T10:29:45.903Z,4.20
2023-03-27T10:32:13.113Z,4.00
2023-03-27T10:34:51.835Z,3.88
2023-03-27T10:37:28.143Z,4.25
2023-03-27T10:39:58.310Z,3.97
2023-03-27T10:42:27.969Z,3.75
2023-03-27T10:44:56.769Z,4.10
2023-03-27T10:47:49.376Z,4.25
2023-03-27T10:50:18.934Z,3.38
2023-03-27T10:53:05.065Z,4.05
2023-03-27T10:55:41.584Z,4.00
2023-03-27T10:58:20.096Z,4.32
2023-03-27T11:01:21.046Z,5.15
2023-03-27T11:03:59.706Z,4.50
2023-03-27T11:06:34.164Z,3.83
2023-03-27T11:09:16.253Z,3.50
2023-03-27T11:11:50.299Z,3.88
2023-03-27T11:14:45.595Z,4.37
2023-03-27T11:17:17.863Z,4.07
2023-03-27T11:19:58.914Z,3.72
2023-03-27T11:22:32.312Z,4.18
2023-03-27T11:25:36.543Z,3.85
2023-03-27T11:28:31.124Z,3.88
2023-03-27T11:31:32.174Z,3.15
2023-03-27T11:34:29.352Z,3.10
2023-03-27T11:37:21.865Z,3.47
2023-03-27T11:39:59.608Z,3.05
2023-03-27T11:42:32.570Z,3.42
2023-03-27T11:44:59.729Z,3.88
2023-03-27T11:47:32.372Z,3.45
2023-03-27T11:50:20.396Z,3.35
2023-03-27T11:52:47.057Z,3.60
2023-03-27T11:55:33.592Z,3.22
2023-03-27T11:58:19.172Z,4.07
2023-03-27T12:01:28.231Z,3.88
2023-03-27T12:04:07.038Z,3.53
2023-03-27T12:07:18.784Z,3.75
2023-03-27T12:10:13.017Z,3.65
2023-03-27T12:13:18.125Z,3.17
2023-03-27T12:16:00.154Z,3.60
2023-03-27T12:18:48.045Z,3.50
2023-03-27T12:21:34.414Z,3.72
2023-03-27T12:24:23.689Z,3.47
2023-03-27T12:27:11.380Z,3.53
2023-03-27T12:30:15.234Z,3.90
2023-03-27T12:33:19.932Z,4.63
2023-03-27T12:35:54.539Z,4.40
2023-03-27T12:38:24.277Z,2.72
2023-03-27T12:41:05.428Z,4.47
2023-03-27T12:43:39.679Z,4.10
2023-03-27T12:46:20.000Z,3.88
2023-03-27T12:48:52.814Z,4.43
2023-03-27T12:51:34.754Z,3.03
2023-03-27T12:54:15.897Z,4.35
2023-03-27T12:56:43.734Z,4.05
2023-03-27T12:59:20.499Z,3.55
2023-03-27T13:01:53.341Z,5.30
2023-03-27T13:04:29.099Z,3.80
2023-03-27T13:07:05.226Z,4.35
2023-03-27T13:09:46.850Z,4.97
2023-03-27T13:12:28.585Z,4.43
2023-03-27T13:15:21.187Z,4.22
2023-03-27T13:18:16.045Z,3.53
2023-03-27T13:20:48.219Z,5.00
2023-03-27T13:23:14.846Z,4.32
2023-03-27T13:25:54.567Z,3.80
2023-03-27T13:28:48.592Z,3.75
2023-03-27T13:31:44.726Z,4.05
2023-03-27T13:34:28.820Z,3.65
2023-03-27T13:37:07.754Z,4.57
2023-03-27T13:39:45.974Z,3.55
2023-03-27T13:42:21.331Z,4.18
2023-03-27T13:44:57.774Z,4.18
2023-03-27T13:47:28.413Z,4.45
2023-03-27T13:50:27.054Z,4.28
2023-03-27T13:53:12.797Z,3.95
2023-03-27T13:56:14.819Z,4.22
2023-03-27T13:58:58.544Z,4.32
2023-03-27T14:01:31.666Z,3.88
2023-03-27T14:04:14.479Z,4.32
2023-03-27T14:07:08.920Z,3.88
2023-03-27T14:09:52.358Z,4.72
2023-03-27T14:12:42.662Z,4.15
2023-03-27T14:15:31.239Z,4.30
2023-03-27T14:18:46.268Z,4.97
2023-03-27T14:21:27.964Z,5.03
